sensor_id;sensor_type;location;lat;lon;timestamp;P1;durP1;ratioP1;P2;durP2;ratioP2
16977;SDS011;8605;52.548;4.918;2023-03-21T00:02:13;6.47;;;4.73;;
16977;SDS011;8605;52.548;4.918;2023-03-21T00:07:18;7.90;;;4.47;;
16977;SDS011;8605;52.548;4.918;2023-03-21T00:12:21;7.30;;;4.67;;
16977;SDS011;8605;52.548;4.918;2023-03-21T00:17:24;8.73;;;5.83;;
16977;SDS011;8605;52.548;4.918;2023-03-21T00:22:34;9.50;;;6.10;;
16977;SDS011;8605;52.548;4.918;2023-03-21T00:27:37;10.57;;;5.97;;
16977;SDS011;8605;52.548;4.918;2023-03-21T00:32:59;12.83;;;7.33;;
16977;SDS011;8605;52.548;4.918;2023-03-21T00:38:21;11.87;;;6.80;;
16977;SDS011;8605;52.548;4.918;2023-03-21T00:43:25;14.63;;;8.73;;
16977;SDS011;8605;52.548;4.918;2023-03-21T00:48:30;16.73;;;9.40;;
16977;SDS011;8605;52.548;4.918;2023-03-21T00:53:34;18.20;;;10.07;;
16977;SDS011;8605;52.548;4.918;2023-03-21T00:58:37;18.77;;;10.37;;
16977;SDS011;8605;52.548;4.918;2023-03-21T01:03:40;24.33;;;10.70;;
16977;SDS011;8605;52.548;4.918;2023-03-21T01:08:49;23.27;;;12.20;;
16977;SDS011;8605;52.548;4.918;2023-03-21T01:13:54;21.67;;;11.77;;
16977;SDS011;8605;52.548;4.918;2023-03-21T01:19:18;22.57;;;11.70;;
16977;SDS011;8605;52.548;4.918;2023-03-21T01:24:29;27.87;;;12.60;;
16977;SDS011;8605;52.548;4.918;2023-03-21T01:29:34;21.90;;;12.07;;
16977;SDS011;8605;52.548;4.918;2023-03-21T01:34:37;18.50;;;10.73;;
16977;SDS011;8605;52.548;4.918;2023-03-21T01:39:41;32.83;;;12.47;;
16977;SDS011;8605;52.548;4.918;2023-03-21T01:44:54;28.30;;;13.57;;
16977;SDS011;8605;52.548;4.918;2023-03-21T01:50:08;34.00;;;13.10;;
16977;SDS011;8605;52.548;4.918;2023-03-21T01:55:17;26.23;;;12.67;;
16977;SDS011;8605;52.548;4.918;2023-03-21T02:00:27;32.87;;;14.70;;
16977;SDS011;8605;52.548;4.918;2023-03-21T02:05:51;23.87;;;11.50;;
16977;SDS011;8605;52.548;4.918;2023-03-21T02:11:00;17.27;;;12.00;;
16977;SDS011;8605;52.548;4.918;2023-03-21T02:16:13;19.27;;;11.80;;
16977;SDS011;8605;52.548;4.918;2023-03-21T02:27:06;15.50;;;8.37;;
16977;SDS011;8605;52.548;4.918;2023-03-21T02:32:15;16.87;;;9.37;;
16977;SDS011;8605;52.548;4.918;2023-03-21T02:37:40;14.00;;;7.50;;
16977;SDS011;8605;52.548;4.918;2023-03-21T02:42:53;13.70;;;7.83;;
16977;SDS011;8605;52.548;4.918;2023-03-21T02:48:08;14.80;;;7.93;;
16977;SDS011;8605;52.548;4.918;2023-03-21T02:53:30;17.63;;;9.50;;
16977;SDS011;8605;52.548;4.918;2023-03-21T02:58:40;18.10;;;8.60;;
16977;SDS011;8605;52.548;4.918;2023-03-21T03:03:44;17.77;;;10.23;;
16977;SDS011;8605;52.548;4.918;2023-03-21T03:08:53;23.60;;;11.67;;
16977;SDS011;8605;52.548;4.918;2023-03-21T03:14:09;22.70;;;11.80;;
16977;SDS011;8605;52.548;4.918;2023-03-21T03:19:51;29.27;;;12.87;;
16977;SDS011;8605;52.548;4.918;2023-03-21T03:25:16;24.87;;;12.33;;
16977;SDS011;8605;52.548;4.918;2023-03-21T03:30:40;22.57;;;12.47;;
16977;SDS011;8605;52.548;4.918;2023-03-21T03:36:05;20.77;;;11.93;;
16977;SDS011;8605;52.548;4.918;2023-03-21T03:41:30;18.17;;;10.20;;
16977;SDS011;8605;52.548;4.918;2023-03-21T03:47:00;21.30;;;10.30;;
16977;SDS011;8605;52.548;4.918;2023-03-21T03:52:06;23.13;;;10.43;;
16977;SDS011;8605;52.548;4.918;2023-03-21T03:57:17;18.17;;;10.87;;
16977;SDS011;8605;52.548;4.918;2023-03-21T04:02:20;26.60;;;12.17;;
16977;SDS011;8605;52.548;4.918;2023-03-21T04:07:25;25.00;;;11.20;;
16977;SDS011;8605;52.548;4.918;2023-03-21T04:12:32;20.10;;;10.50;;
16977;SDS011;8605;52.548;4.918;2023-03-21T04:18:00;20.60;;;11.10;;
16977;SDS011;8605;52.548;4.918;2023-03-21T04:23:03;19.30;;;12.43;;
16977;SDS011;8605;52.548;4.918;2023-03-21T04:28:08;25.53;;;14.20;;
16977;SDS011;8605;52.548;4.918;2023-03-21T04:33:34;30.33;;;16.33;;
16977;SDS011;8605;52.548;4.918;2023-03-21T04:38:39;38.17;;;20.33;;
16977;SDS011;8605;52.548;4.918;2023-03-21T04:43:45;44.87;;;21.53;;
16977;SDS011;8605;52.548;4.918;2023-03-21T04:48:49;36.63;;;20.13;;
16977;SDS011;8605;52.548;4.918;2023-03-21T04:53:51;40.87;;;20.33;;
16977;SDS011;8605;52.548;4.918;2023-03-21T04:58:59;42.37;;;23.57;;
16977;SDS011;8605;52.548;4.918;2023-03-21T05:04:04;37.40;;;19.63;;
16977;SDS011;8605;52.548;4.918;2023-03-21T05:09:08;32.00;;;19.73;;
16977;SDS011;8605;52.548;4.918;2023-03-21T05:14:15;38.60;;;19.63;;
16977;SDS011;8605;52.548;4.918;2023-03-21T05:19:19;32.43;;;19.47;;
16977;SDS011;8605;52.548;4.918;2023-03-21T05:24:24;33.10;;;18.03;;
16977;SDS011;8605;52.548;4.918;2023-03-21T05:29:29;28.00;;;18.17;;
16977;SDS011;8605;52.548;4.918;2023-03-21T05:34:39;30.07;;;17.57;;
16977;SDS011;8605;52.548;4.918;2023-03-21T05:39:43;31.73;;;18.00;;
16977;SDS011;8605;52.548;4.918;2023-03-21T05:44:54;42.07;;;20.00;;
16977;SDS011;8605;52.548;4.918;2023-03-21T05:50:02;43.47;;;20.40;;
16977;SDS011;8605;52.548;4.918;2023-03-21T05:55:07;42.33;;;22.40;;
16977;SDS011;8605;52.548;4.918;2023-03-21T06:00:13;41.10;;;23.17;;
16977;SDS011;8605;52.548;4.918;2023-03-21T06:05:16;46.23;;;24.90;;
16977;SDS011;8605;52.548;4.918;2023-03-21T06:10:19;49.63;;;27.73;;
16977;SDS011;8605;52.548;4.918;2023-03-21T06:15:24;56.70;;;27.07;;
16977;SDS011;8605;52.548;4.918;2023-03-21T06:20:35;60.97;;;31.10;;
16977;SDS011;8605;52.548;4.918;2023-03-21T06:25:43;57.87;;;30.30;;
16977;SDS011;8605;52.548;4.918;2023-03-21T06:30:47;60.23;;;32.40;;
16977;SDS011;8605;52.548;4.918;2023-03-21T06:35:56;57.27;;;30.07;;
16977;SDS011;8605;52.548;4.918;2023-03-21T06:41:00;65.17;;;31.53;;
16977;SDS011;8605;52.548;4.918;2023-03-21T06:46:11;60.97;;;32.10;;
16977;SDS011;8605;52.548;4.918;2023-03-21T06:51:15;56.93;;;29.07;;
16977;SDS011;8605;52.548;4.918;2023-03-21T06:56:41;53.77;;;28.13;;
16977;SDS011;8605;52.548;4.918;2023-03-21T07:01:49;56.43;;;31.53;;
16977;SDS011;8605;52.548;4.918;2023-03-21T07:06:52;60.03;;;30.20;;
16977;SDS011;8605;52.548;4.918;2023-03-21T07:11:56;58.23;;;28.13;;
16977;SDS011;8605;52.548;4.918;2023-03-21T07:17:09;56.17;;;26.20;;
16977;SDS011;8605;52.548;4.918;2023-03-21T07:22:12;56.17;;;25.17;;
16977;SDS011;8605;52.548;4.918;2023-03-21T07:27:15;58.37;;;28.23;;
16977;SDS011;8605;52.548;4.918;2023-03-21T07:32:20;63.97;;;28.87;;
16977;SDS011;8605;52.548;4.918;2023-03-21T07:37:23;56.40;;;29.70;;
16977;SDS011;8605;52.548;4.918;2023-03-21T07:42:26;53.03;;;29.10;;
16977;SDS011;8605;52.548;4.918;2023-03-21T07:47:37;67.03;;;29.17;;
16977;SDS011;8605;52.548;4.918;2023-03-21T07:52:40;49.23;;;26.00;;
16977;SDS011;8605;52.548;4.918;2023-03-21T07:57:43;54.97;;;27.13;;
16977;SDS011;8605;52.548;4.918;2023-03-21T08:02:48;59.67;;;27.53;;
16977;SDS011;8605;52.548;4.918;2023-03-21T08:07:58;64.97;;;28.93;;
16977;SDS011;8605;52.548;4.918;2023-03-21T08:13:02;50.40;;;25.03;;
16977;SDS011;8605;52.548;4.918;2023-03-21T08:18:07;53.87;;;25.43;;
16977;SDS011;8605;52.548;4.918;2023-03-21T08:23:11;48.63;;;23.47;;
16977;SDS011;8605;52.548;4.918;2023-03-21T08:28:15;50.93;;;22.47;;
16977;SDS011;8605;52.548;4.918;2023-03-21T08:33:19;39.40;;;20.00;;
16977;SDS011;8605;52.548;4.918;2023-03-21T08:38:23;45.23;;;20.40;;
16977;SDS011;8605;52.548;4.918;2023-03-21T08:43:31;35.30;;;19.40;;
16977;SDS011;8605;52.548;4.918;2023-03-21T08:48:36;36.93;;;18.97;;
16977;SDS011;8605;52.548;4.918;2023-03-21T08:53:39;39.17;;;17.33;;
16977;SDS011;8605;52.548;4.918;2023-03-21T08:58:44;27.90;;;15.80;;
16977;SDS011;8605;52.548;4.918;2023-03-21T09:03:49;28.00;;;16.67;;
16977;SDS011;8605;52.548;4.918;2023-03-21T09:08:52;35.00;;;15.20;;
16977;SDS011;8605;52.548;4.918;2023-03-21T09:13:55;38.47;;;17.40;;
16977;SDS011;8605;52.548;4.918;2023-03-21T09:18:59;32.47;;;16.33;;
16977;SDS011;8605;52.548;4.918;2023-03-21T09:24:04;34.93;;;17.43;;
16977;SDS011;8605;52.548;4.918;2023-03-21T09:29:08;38.73;;;17.93;;
16977;SDS011;8605;52.548;4.918;2023-03-21T09:34:13;33.33;;;16.67;;
16977;SDS011;8605;52.548;4.918;2023-03-21T09:39:16;37.97;;;16.97;;
16977;SDS011;8605;52.548;4.918;2023-03-21T09:44:23;28.70;;;14.77;;
16977;SDS011;8605;52.548;4.918;2023-03-21T09:49:33;30.43;;;14.43;;
16977;SDS011;8605;52.548;4.918;2023-03-21T09:54:37;25.53;;;14.50;;
16977;SDS011;8605;52.548;4.918;2023-03-21T09:59:43;30.63;;;15.13;;
16977;SDS011;8605;52.548;4.918;2023-03-21T10:04:49;29.50;;;13.97;;
16977;SDS011;8605;52.548;4.918;2023-03-21T10:09:53;26.73;;;15.17;;
16977;SDS011;8605;52.548;4.918;2023-03-21T10:14:57;27.53;;;13.93;;
16977;SDS011;8605;52.548;4.918;2023-03-21T10:20:10;28.87;;;14.70;;
16977;SDS011;8605;52.548;4.918;2023-03-21T10:25:17;29.20;;;16.27;;
16977;SDS011;8605;52.548;4.918;2023-03-21T10:30:25;30.27;;;15.40;;
16977;SDS011;8605;52.548;4.918;2023-03-21T10:35:35;31.33;;;15.23;;
16977;SDS011;8605;52.548;4.918;2023-03-21T10:40:40;32.37;;;15.83;;
16977;SDS011;8605;52.548;4.918;2023-03-21T10:45:44;31.43;;;15.80;;
16977;SDS011;8605;52.548;4.918;2023-03-21T10:50:50;27.27;;;15.77;;
16977;SDS011;8605;52.548;4.918;2023-03-21T10:55:55;33.40;;;16.77;;
16977;SDS011;8605;52.548;4.918;2023-03-21T11:01:00;33.80;;;17.07;;
16977;SDS011;8605;52.548;4.918;2023-03-21T11:06:07;29.93;;;17.20;;
16977;SDS011;8605;52.548;4.918;2023-03-21T11:11:19;32.00;;;18.10;;
16977;SDS011;8605;52.548;4.918;2023-03-21T11:16:25;40.67;;;21.27;;
16977;SDS011;8605;52.548;4.918;2023-03-21T11:21:35;40.23;;;18.50;;
16977;SDS011;8605;52.548;4.918;2023-03-21T11:26:39;34.20;;;17.63;;
16977;SDS011;8605;52.548;4.918;2023-03-21T11:31:43;36.47;;;17.60;;
16977;SDS011;8605;52.548;4.918;2023-03-21T11:36:48;31.30;;;18.03;;
16977;SDS011;8605;52.548;4.918;2023-03-21T11:41:52;37.07;;;17.23;;
16977;SDS011;8605;52.548;4.918;2023-03-21T11:46:55;29.77;;;13.73;;
16977;SDS011;8605;52.548;4.918;2023-03-21T11:52:02;25.87;;;14.17;;
16977;SDS011;8605;52.548;4.918;2023-03-21T11:57:10;21.40;;;14.47;;
16977;SDS011;8605;52.548;4.918;2023-03-21T12:02:40;25.33;;;13.40;;
16977;SDS011;8605;52.548;4.918;2023-03-21T12:07:58;31.50;;;11.83;;
16977;SDS011;8605;52.548;4.918;2023-03-21T12:13:09;18.10;;;10.23;;
16977;SDS011;8605;52.548;4.918;2023-03-21T12:18:26;33.73;;;14.63;;
16977;SDS011;8605;52.548;4.918;2023-03-21T12:23:41;22.80;;;12.60;;
16977;SDS011;8605;52.548;4.918;2023-03-21T12:29:00;24.53;;;12.00;;
16977;SDS011;8605;52.548;4.918;2023-03-21T12:34:15;21.03;;;9.43;;
16977;SDS011;8605;52.548;4.918;2023-03-21T12:39:29;17.07;;;9.20;;
16977;SDS011;8605;52.548;4.918;2023-03-21T12:44:34;15.80;;;7.10;;
16977;SDS011;8605;52.548;4.918;2023-03-21T12:49:40;18.83;;;8.17;;
16977;SDS011;8605;52.548;4.918;2023-03-21T12:54:47;14.90;;;5.33;;
16977;SDS011;8605;52.548;4.918;2023-03-21T12:59:53;7.63;;;4.43;;
16977;SDS011;8605;52.548;4.918;2023-03-21T13:05:00;11.13;;;4.33;;
16977;SDS011;8605;52.548;4.918;2023-03-21T13:10:12;10.53;;;5.23;;
16977;SDS011;8605;52.548;4.918;2023-03-21T13:20:39;11.53;;;6.97;;
16977;SDS011;8605;52.548;4.918;2023-03-21T13:25:49;14.70;;;7.83;;
16977;SDS011;8605;52.548;4.918;2023-03-21T13:30:53;16.43;;;7.97;;
16977;SDS011;8605;52.548;4.918;2023-03-21T13:36:24;13.73;;;8.43;;
16977;SDS011;8605;52.548;4.918;2023-03-21T13:41:30;13.37;;;7.43;;
16977;SDS011;8605;52.548;4.918;2023-03-21T13:46:42;13.93;;;7.90;;
16977;SDS011;8605;52.548;4.918;2023-03-21T13:51:55;18.10;;;6.40;;
16977;SDS011;8605;52.548;4.918;2023-03-21T13:57:03;18.30;;;7.90;;
16977;SDS011;8605;52.548;4.918;2023-03-21T14:07:31;7.73;;;4.70;;
16977;SDS011;8605;52.548;4.918;2023-03-21T14:12:38;18.53;;;5.67;;
16977;SDS011;8605;52.548;4.918;2023-03-21T14:17:48;14.27;;;6.60;;
16977;SDS011;8605;52.548;4.918;2023-03-21T14:22:52;14.60;;;7.00;;
16977;SDS011;8605;52.548;4.918;2023-03-21T14:27:58;28.00;;;8.43;;
16977;SDS011;8605;52.548;4.918;2023-03-21T14:33:04;15.00;;;7.60;;
16977;SDS011;8605;52.548;4.918;2023-03-21T14:38:18;10.97;;;6.70;;
16977;SDS011;8605;52.548;4.918;2023-03-21T14:43:23;19.70;;;6.57;;
16977;SDS011;8605;52.548;4.918;2023-03-21T14:48:30;12.67;;;6.13;;
16977;SDS011;8605;52.548;4.918;2023-03-21T14:53:35;10.70;;;5.17;;
16977;SDS011;8605;52.548;4.918;2023-03-21T14:58:40;14.00;;;5.83;;
16977;SDS011;8605;52.548;4.918;2023-03-21T15:03:45;12.10;;;5.80;;
16977;SDS011;8605;52.548;4.918;2023-03-21T15:08:54;8.90;;;6.10;;
16977;SDS011;8605;52.548;4.918;2023-03-21T15:14:00;12.07;;;4.83;;
16977;SDS011;8605;52.548;4.918;2023-03-21T15:19:04;10.17;;;5.20;;
16977;SDS011;8605;52.548;4.918;2023-03-21T15:24:08;9.03;;;4.97;;
16977;SDS011;8605;52.548;4.918;2023-03-21T15:29:17;7.70;;;4.37;;
16977;SDS011;8605;52.548;4.918;2023-03-21T15:34:21;8.60;;;4.40;;
16977;SDS011;8605;52.548;4.918;2023-03-21T15:39:27;12.30;;;5.33;;
16977;SDS011;8605;52.548;4.918;2023-03-21T15:44:33;11.83;;;6.00;;
16977;SDS011;8605;52.548;4.918;2023-03-21T15:49:38;9.67;;;5.67;;
16977;SDS011;8605;52.548;4.918;2023-03-21T15:54:43;15.47;;;6.50;;
16977;SDS011;8605;52.548;4.918;2023-03-21T15:59:49;9.93;;;4.60;;
16977;SDS011;8605;52.548;4.918;2023-03-21T16:04:58;8.47;;;4.73;;
16977;SDS011;8605;52.548;4.918;2023-03-21T16:10:02;8.90;;;4.73;;
16977;SDS011;8605;52.548;4.918;2023-03-21T16:15:07;10.07;;;4.93;;
16977;SDS011;8605;52.548;4.918;2023-03-21T16:20:12;7.90;;;3.50;;
16977;SDS011;8605;52.548;4.918;2023-03-21T16:25:20;7.00;;;3.20;;
16977;SDS011;8605;52.548;4.918;2023-03-21T16:30:24;10.30;;;2.67;;
16977;SDS011;8605;52.548;4.918;2023-03-21T16:35:28;6.80;;;3.53;;
16977;SDS011;8605;52.548;4.918;2023-03-21T16:40:31;8.67;;;3.67;;
16977;SDS011;8605;52.548;4.918;2023-03-21T16:45:39;7.23;;;3.07;;
16977;SDS011;8605;52.548;4.918;2023-03-21T16:50:45;10.37;;;3.40;;
16977;SDS011;8605;52.548;4.918;2023-03-21T16:55:49;9.30;;;2.63;;
16977;SDS011;8605;52.548;4.918;2023-03-21T17:00:54;17.17;;;5.40;;
16977;SDS011;8605;52.548;4.918;2023-03-21T17:05:57;9.83;;;3.97;;
16977;SDS011;8605;52.548;4.918;2023-03-21T17:11:01;18.13;;;5.17;;
16977;SDS011;8605;52.548;4.918;2023-03-21T17:16:09;10.23;;;3.80;;
16977;SDS011;8605;52.548;4.918;2023-03-21T17:21:13;20.17;;;5.97;;
16977;SDS011;8605;52.548;4.918;2023-03-21T17:26:18;4.23;;;1.90;;
16977;SDS011;8605;52.548;4.918;2023-03-21T17:31:24;5.97;;;1.70;;
16977;SDS011;8605;52.548;4.918;2023-03-21T17:36:29;5.93;;;1.63;;
16977;SDS011;8605;52.548;4.918;2023-03-21T17:41:34;2.87;;;1.40;;
16977;SDS011;8605;52.548;4.918;2023-03-21T17:46:38;4.50;;;1.37;;
16977;SDS011;8605;52.548;4.918;2023-03-21T17:51:41;5.13;;;1.17;;
16977;SDS011;8605;52.548;4.918;2023-03-21T17:56:47;7.17;;;1.73;;
16977;SDS011;8605;52.548;4.918;2023-03-21T18:01:53;4.47;;;2.53;;
16977;SDS011;8605;52.548;4.918;2023-03-21T18:06:56;6.90;;;1.87;;
16977;SDS011;8605;52.548;4.918;2023-03-21T18:12:01;5.47;;;2.57;;
16977;SDS011;8605;52.548;4.918;2023-03-21T18:17:06;5.17;;;2.77;;
16977;SDS011;8605;52.548;4.918;2023-03-21T18:22:08;10.90;;;3.37;;
16977;SDS011;8605;52.548;4.918;2023-03-21T18:27:11;11.77;;;2.53;;
16977;SDS011;8605;52.548;4.918;2023-03-21T18:32:16;10.13;;;2.60;;
16977;SDS011;8605;52.548;4.918;2023-03-21T18:37:19;4.80;;;2.17;;
16977;SDS011;8605;52.548;4.918;2023-03-21T18:42:23;5.87;;;2.40;;
16977;SDS011;8605;52.548;4.918;2023-03-21T18:47:32;16.37;;;3.83;;
16977;SDS011;8605;52.548;4.918;2023-03-21T18:52:35;7.80;;;2.70;;
16977;SDS011;8605;52.548;4.918;2023-03-21T18:57:38;14.20;;;3.23;;
16977;SDS011;8605;52.548;4.918;2023-03-21T19:02:44;14.87;;;4.10;;
16977;SDS011;8605;52.548;4.918;2023-03-21T19:07:51;7.53;;;3.03;;
16977;SDS011;8605;52.548;4.918;2023-03-21T19:12:54;5.60;;;2.30;;
16977;SDS011;8605;52.548;4.918;2023-03-21T19:17:58;12.43;;;4.00;;
16977;SDS011;8605;52.548;4.918;2023-03-21T19:23:21;11.13;;;3.10;;
16977;SDS011;8605;52.548;4.918;2023-03-21T19:28:25;13.70;;;2.03;;
16977;SDS011;8605;52.548;4.918;2023-03-21T19:33:29;5.73;;;1.90;;
16977;SDS011;8605;52.548;4.918;2023-03-21T19:38:32;6.27;;;2.37;;
16977;SDS011;8605;52.548;4.918;2023-03-21T19:43:36;5.83;;;2.00;;
16977;SDS011;8605;52.548;4.918;2023-03-21T19:48:42;7.47;;;2.23;;
16977;SDS011;8605;52.548;4.918;2023-03-21T19:53:45;5.07;;;2.10;;
16977;SDS011;8605;52.548;4.918;2023-03-21T19:58:48;11.63;;;2.77;;
16977;SDS011;8605;52.548;4.918;2023-03-21T20:03:53;11.27;;;3.70;;
16977;SDS011;8605;52.548;4.918;2023-03-21T20:08:56;11.33;;;2.00;;
16977;SDS011;8605;52.548;4.918;2023-03-21T20:14:19;6.70;;;1.97;;
16977;SDS011;8605;52.548;4.918;2023-03-21T20:19:24;13.67;;;3.37;;
16977;SDS011;8605;52.548;4.918;2023-03-21T20:24:27;11.17;;;2.73;;
16977;SDS011;8605;52.548;4.918;2023-03-21T20:29:30;14.20;;;2.80;;
16977;SDS011;8605;52.548;4.918;2023-03-21T20:34:55;11.00;;;2.40;;
16977;SDS011;8605;52.548;4.918;2023-03-21T20:40:17;10.50;;;2.57;;
16977;SDS011;8605;52.548;4.918;2023-03-21T20:45:21;6.93;;;2.67;;
16977;SDS011;8605;52.548;4.918;2023-03-21T20:50:26;9.87;;;2.87;;
16977;SDS011;8605;52.548;4.918;2023-03-21T20:55:31;10.57;;;3.63;;
16977;SDS011;8605;52.548;4.918;2023-03-21T21:00:35;13.77;;;4.57;;
16977;SDS011;8605;52.548;4.918;2023-03-21T21:05:43;12.13;;;3.30;;
16977;SDS011;8605;52.548;4.918;2023-03-21T21:10:46;11.57;;;3.63;;
16977;SDS011;8605;52.548;4.918;2023-03-21T21:16:10;8.20;;;3.00;;
16977;SDS011;8605;52.548;4.918;2023-03-21T21:21:15;11.30;;;3.43;;
16977;SDS011;8605;52.548;4.918;2023-03-21T21:26:18;8.30;;;3.03;;
16977;SDS011;8605;52.548;4.918;2023-03-21T21:31:21;12.07;;;2.93;;
16977;SDS011;8605;52.548;4.918;2023-03-21T21:36:26;6.40;;;3.13;;
16977;SDS011;8605;52.548;4.918;2023-03-21T21:41:28;21.63;;;7.37;;
16977;SDS011;8605;52.548;4.918;2023-03-21T21:46:31;15.20;;;4.43;;
16977;SDS011;8605;52.548;4.918;2023-03-21T21:51:36;11.80;;;4.30;;
16977;SDS011;8605;52.548;4.918;2023-03-21T21:56:41;20.13;;;6.47;;
16977;SDS011;8605;52.548;4.918;2023-03-21T22:01:48;17.43;;;4.17;;
16977;SDS011;8605;52.548;4.918;2023-03-21T22:06:54;13.70;;;4.90;;
16977;SDS011;8605;52.548;4.918;2023-03-21T22:11:57;10.60;;;5.57;;
16977;SDS011;8605;52.548;4.918;2023-03-21T22:17:00;13.57;;;5.00;;
16977;SDS011;8605;52.548;4.918;2023-03-21T22:22:05;14.43;;;5.33;;
16977;SDS011;8605;52.548;4.918;2023-03-21T22:27:08;20.30;;;4.57;;
16977;SDS011;8605;52.548;4.918;2023-03-21T22:32:11;19.33;;;4.73;;
16977;SDS011;8605;52.548;4.918;2023-03-21T22:37:15;11.80;;;3.63;;
16977;SDS011;8605;52.548;4.918;2023-03-21T22:42:18;13.57;;;3.43;;
16977;SDS011;8605;52.548;4.918;2023-03-21T22:47:21;9.60;;;3.53;;
16977;SDS011;8605;52.548;4.918;2023-03-21T22:52:25;13.07;;;3.43;;
16977;SDS011;8605;52.548;4.918;2023-03-21T22:57:28;20.53;;;5.13;;
16977;SDS011;8605;52.548;4.918;2023-03-21T23:02:31;13.40;;;3.23;;
16977;SDS011;8605;52.548;4.918;2023-03-21T23:07:35;9.57;;;3.53;;
16977;SDS011;8605;52.548;4.918;2023-03-21T23:12:38;8.77;;;2.40;;
16977;SDS011;8605;52.548;4.918;2023-03-21T23:17:41;14.63;;;2.40;;
16977;SDS011;8605;52.548;4.918;2023-03-21T23:22:46;7.93;;;1.83;;
16977;SDS011;8605;52.548;4.918;2023-03-21T23:27:49;10.73;;;2.20;;
16977;SDS011;8605;52.548;4.918;2023-03-21T23:32:52;5.03;;;2.00;;
16977;SDS011;8605;52.548;4.918;2023-03-21T23:37:57;3.33;;;2.40;;
16977;SDS011;8605;52.548;4.918;2023-03-21T23:43:00;6.90;;;1.73;;
16977;SDS011;8605;52.548;4.918;2023-03-21T23:48:03;8.70;;;1.93;;
16977;SDS011;8605;52.548;4.918;2023-03-21T23:53:08;9.77;;;1.93;;
16977;SDS011;8605;52.548;4.918;2023-03-21T23:58:11;11.43;;;3.10;;
